Terminal Aerodrome Forecast
Issued by NWS

Home | Current Version | Previous Version | Text Only | Print | Product List | Glossary On
Versions: 1 2 3 4 5 6 7 8 9 10 11 12 13 14 15 16
000
FTUS45 KRIW 260500
TAFBPI
TAF
KBPI 260521Z 2606/2706 VRB05KT P6SM SCT100 BKN200
     FM260800 VRB05KT P6SM VCSH BKN090
     FM261800 26016G26KT P6SM VCSH SCT050 BKN090
     FM270000 30012KT 5SM -SHRASN SCT030 OVC045
     FM270500 32009KT P6SM VCSH BKN045=

USA.gov is the U.S. government's official web portal to all federal, state and local government web resources and services.